Time;durP1;ratioP1;P1;durP2;ratioP2;P2;SDS_P1;SDS_P2;PMS_P1;PMS_P2;Temp;Humidity;BMP_temperature;BMP_pressure;BME280_temperature;BME280_humidity;BME280_pressure;Samples;Min_cycle;Max_cycle;Signal;HPM_P1;HPM_P2
2021/10/13 00:01:09;;;;;;;19.23;17.90;;;7.80;99.90;;;;;;4879826;29;20206;-75
2021/10/13 00:03:36;;;;;;;20.17;18.67;;;7.80;99.90;;;;;;4879892;29;20227;-75
2021/10/13 00:06:03;;;;;;;20.40;18.90;;;7.80;99.90;;;;;;4881400;29;20430;-75
2021/10/13 00:08:31;;;;;;;20.50;18.93;;;7.90;99.90;;;;;;4880399;29;20708;-75
2021/10/13 00:10:58;;;;;;;20.50;18.93;;;7.90;99.90;;;;;;4878880;29;20265;-75
2021/10/13 00:13:24;;;;;;;20.50;18.90;;;8.00;99.90;;;;;;4881377;29;20783;-75
2021/10/13 00:15:51;;;;;;;20.60;19.03;;;8.00;99.90;;;;;;4880010;29;20203;-75
2021/10/13 00:18:18;;;;;;;20.97;19.47;;;8.10;99.90;;;;;;4878702;29;20242;-75
2021/10/13 00:20:45;;;;;;;20.87;19.17;;;8.00;99.90;;;;;;4879557;29;20646;-75
2021/10/13 00:23:12;;;;;;;19.77;18.37;;;8.10;99.90;;;;;;4880916;29;20233;-75
2021/10/13 00:25:40;;;;;;;19.40;18.10;;;8.10;99.90;;;;;;4877899;29;20264;-75
2021/10/13 00:28:07;;;;;;;20.70;19.20;;;8.10;99.90;;;;;;4880744;29;20227;-75
2021/10/13 00:30:34;;;;;;;20.43;18.93;;;8.20;99.90;;;;;;4880856;29;20724;-75
2021/10/13 00:33:01;;;;;;;19.53;18.10;;;8.30;99.90;;;;;;4880835;29;20228;-75
2021/10/13 00:35:28;;;;;;;20.80;19.30;;;8.30;99.90;;;;;;4873305;29;20222;-75
2021/10/13 00:37:54;;;;;;;19.60;18.23;;;8.30;99.90;;;;;;4879350;29;20273;-75
2021/10/13 00:40:21;;;;;;;19.33;17.93;;;8.30;99.90;;;;;;4877210;29;20209;-75
2021/10/13 00:42:49;;;;;;;19.00;17.60;;;8.30;99.90;;;;;;4880105;29;20231;-75
2021/10/13 00:45:16;;;;;;;19.80;18.30;;;8.40;99.90;;;;;;4880450;29;20234;-75
2021/10/13 00:47:43;;;;;;;19.60;18.20;;;8.40;99.90;;;;;;4880437;29;20287;-75
2021/10/13 00:50:12;;;;;;;19.10;17.60;;;8.40;99.90;;;;;;4876694;29;20762;-75
2021/10/13 00:55:19;;;;;;;19.03;17.73;;;8.40;99.90;;;;;;4907933;29;20224;-76
2021/10/13 00:57:47;;;;;;;19.60;18.10;;;8.50;99.90;;;;;;4901181;29;20250;-76
2021/10/13 01:00:17;;;;;;;20.70;18.90;;;8.50;99.90;;;;;;4907291;29;20276;-76
2021/10/13 01:02:53;;;;;;;18.57;17.33;;;8.50;99.90;;;;;;4908330;29;20259;-76
2021/10/13 01:05:33;;;;;;;19.27;17.87;;;8.50;99.90;;;;;;4891317;29;20220;-76
2021/10/13 01:08:03;;;;;;;19.23;17.73;;;8.60;99.90;;;;;;4886573;29;20276;-76
2021/10/13 01:10:41;;;;;;;18.90;17.70;;;8.50;99.90;;;;;;4894806;29;20202;-76
2021/10/13 01:13:16;;;;;;;19.97;18.57;;;8.50;99.90;;;;;;4891484;29;20709;-76
2021/10/13 01:15:57;;;;;;;19.20;17.83;;;8.50;99.90;;;;;;4891068;29;20649;-77
2021/10/13 01:18:30;;;;;;;19.30;17.93;;;8.40;99.90;;;;;;4887893;29;20256;-76
2021/10/13 01:21:04;;;;;;;19.97;18.47;;;8.40;99.90;;;;;;4885565;29;20268;-76
2021/10/13 01:24:22;;;;;;;18.37;17.07;;;8.40;99.90;;;;;;4890158;29;20798;-75
2021/10/13 01:26:56;;;;;;;19.17;17.83;;;8.40;99.90;;;;;;4889633;29;20215;-76
2021/10/13 01:29:25;;;;;;;19.87;18.33;;;8.40;99.90;;;;;;4889006;29;20209;-77
2021/10/13 01:31:59;;;;;;;18.47;17.27;;;8.40;99.90;;;;;;4887695;29;20207;-77
2021/10/13 01:34:30;;;;;;;18.27;16.97;;;8.40;99.90;;;;;;4887880;29;20228;-76
2021/10/13 01:37:02;;;;;;;19.13;17.73;;;8.40;99.90;;;;;;4886925;29;20256;-76
2021/10/13 01:39:30;;;;;;;18.37;17.07;;;8.40;99.90;;;;;;4879949;29;20197;-77
2021/10/13 01:41:58;;;;;;;17.83;16.73;;;8.40;99.90;;;;;;4879699;29;20625;-76
2021/10/13 01:44:31;;;;;;;18.10;16.80;;;8.40;99.90;;;;;;4879892;29;20267;-76
2021/10/13 01:46:58;;;;;;;18.57;17.17;;;8.30;99.90;;;;;;4878493;29;20218;-76
2021/10/13 01:49:26;;;;;;;19.00;17.40;;;8.40;99.90;;;;;;4879596;29;20816;-76
2021/10/13 01:51:54;;;;;;;17.83;16.57;;;8.40;99.90;;;;;;4878632;29;20211;-77
2021/10/13 01:54:22;;;;;;;17.90;16.70;;;8.30;99.90;;;;;;4878421;29;20612;-78
2021/10/13 01:56:49;;;;;;;18.13;16.83;;;8.30;99.90;;;;;;4879754;29;20204;-76
2021/10/13 01:59:22;;;;;;;18.23;16.93;;;8.30;99.90;;;;;;4892370;29;20208;-77
2021/10/13 02:01:52;;;;;;;17.43;16.23;;;8.30;99.90;;;;;;4887235;29;20626;-77
2021/10/13 02:04:20;;;;;;;17.67;16.47;;;8.30;99.90;;;;;;4889989;29;20300;-77
2021/10/13 02:06:50;;;;;;;18.03;16.77;;;8.30;99.90;;;;;;4887068;29;20248;-76
2021/10/13 02:09:19;;;;;;;19.03;17.50;;;8.30;99.90;;;;;;4888021;29;20261;-77
2021/10/13 02:11:46;;;;;;;18.97;17.57;;;8.30;99.90;;;;;;4891604;29;20677;-76
2021/10/13 02:14:17;;;;;;;18.50;17.30;;;8.30;99.90;;;;;;4891355;29;20704;-77
2021/10/13 02:16:47;;;;;;;19.07;17.57;;;8.20;99.90;;;;;;4889481;29;20253;-76
2021/10/13 02:19:19;;;;;;;19.67;18.17;;;8.30;99.90;;;;;;4889687;29;20196;-76
2021/10/13 02:21:48;;;;;;;18.37;17.17;;;8.30;99.90;;;;;;4889522;29;20203;-76
2021/10/13 02:24:18;;;;;;;18.50;17.30;;;8.30;99.90;;;;;;4885252;29;20291;-76
2021/10/13 02:26:47;;;;;;;19.67;18.27;;;8.30;99.90;;;;;;4887591;29;20291;-76
2021/10/13 02:29:16;;;;;;;19.03;17.67;;;8.30;99.90;;;;;;4881898;29;20231;-76
2021/10/13 02:31:44;;;;;;;19.07;17.67;;;8.30;99.90;;;;;;4886257;29;20211;-76
2021/10/13 02:34:11;;;;;;;18.67;17.27;;;8.30;99.90;;;;;;4891415;29;20298;-77
2021/10/13 02:36:39;;;;;;;18.47;17.17;;;8.30;99.90;;;;;;4887812;29;20212;-76
2021/10/13 02:39:07;;;;;;;18.60;17.30;;;8.30;99.90;;;;;;4888247;29;20202;-76
2021/10/13 02:41:35;;;;;;;19.50;18.10;;;8.30;99.90;;;;;;4887395;29;20203;-76
2021/10/13 02:44:04;;;;;;;18.33;16.93;;;8.30;99.90;;;;;;4889345;29;20227;-76
2021/10/13 02:46:34;;;;;;;18.53;17.00;;;8.30;99.90;;;;;;4881954;29;20211;-76
2021/10/13 02:49:05;;;;;;;18.47;17.17;;;8.30;99.90;;;;;;4893700;29;20221;-78
2021/10/13 02:51:39;;;;;;;19.20;17.90;;;8.30;99.90;;;;;;4889873;29;20210;-79
2021/10/13 02:54:14;;;;;;;18.77;17.50;;;8.30;99.90;;;;;;4889384;29;20231;-77
2021/10/13 02:56:47;;;;;;;19.10;17.60;;;8.30;99.90;;;;;;4891907;29;20286;-76
2021/10/13 02:59:18;;;;;;;18.87;17.40;;;8.30;99.90;;;;;;4895126;29;20223;-76
2021/10/13 03:01:46;;;;;;;18.10;16.70;;;8.30;99.90;;;;;;4893524;29;20230;-76
2021/10/13 03:04:17;;;;;;;18.93;17.57;;;8.20;99.90;;;;;;4893419;29;20637;-76
2021/10/13 03:06:49;;;;;;;18.33;17.03;;;8.20;99.90;;;;;;4893714;29;20199;-76
2021/10/13 03:09:21;;;;;;;19.13;17.73;;;8.20;99.90;;;;;;4887116;29;20715;-76
2021/10/13 03:11:49;;;;;;;19.30;17.83;;;8.20;99.90;;;;;;4886113;29;20200;-75
2021/10/13 03:14:21;;;;;;;18.50;17.20;;;8.20;99.90;;;;;;4878065;29;20255;-76
2021/10/13 03:16:48;;;;;;;18.70;17.40;;;8.20;99.90;;;;;;4884859;29;20682;-76
2021/10/13 03:19:15;;;;;;;18.57;17.27;;;8.10;99.90;;;;;;4878463;29;20216;-76
2021/10/13 03:21:42;;;;;;;18.27;17.07;;;8.10;99.90;;;;;;4887698;29;20229;-76
2021/10/13 03:24:09;;;;;;;18.60;17.37;;;8.10;99.90;;;;;;4892847;29;20289;-76
2021/10/13 03:26:37;;;;;;;18.90;17.60;;;8.00;99.90;;;;;;4887477;29;20204;-76
2021/10/13 03:29:04;;;;;;;17.97;16.70;;;8.00;99.90;;;;;;4884102;29;20234;-76
2021/10/13 03:31:31;;;;;;;19.00;17.70;;;7.90;99.90;;;;;;4887210;29;20259;-76
2021/10/13 03:33:58;;;;;;;19.17;17.77;;;7.80;99.90;;;;;;4884266;29;20226;-76
2021/10/13 03:36:25;;;;;;;19.13;17.80;;;7.80;99.90;;;;;;4887457;29;20263;-76
2021/10/13 03:38:51;;;;;;;19.10;17.70;;;7.80;99.90;;;;;;4882078;29;20624;-76
2021/10/13 03:41:18;;;;;;;20.20;18.60;;;7.70;99.90;;;;;;4888783;29;20206;-75
2021/10/13 03:43:50;;;;;;;18.73;17.33;;;7.60;99.90;;;;;;4879875;29;20290;-76
2021/10/13 03:46:19;;;;;;;19.73;18.33;;;7.60;99.90;;;;;;4880767;29;20210;-77
2021/10/13 03:48:50;;;;;;;18.67;17.37;;;7.60;99.90;;;;;;4890051;29;20647;-76
2021/10/13 03:51:17;;;;;;;18.40;17.10;;;7.60;99.90;;;;;;4894928;29;20708;-76
2021/10/13 03:53:43;;;;;;;19.73;18.33;;;7.50;99.90;;;;;;4895985;29;20297;-75
2021/10/13 03:56:10;;;;;;;18.77;17.50;;;7.50;99.90;;;;;;4882182;29;20269;-76
2021/10/13 03:58:37;;;;;;;20.30;18.80;;;7.40;99.90;;;;;;4886789;29;20684;-75
2021/10/13 04:01:05;;;;;;;19.20;17.90;;;7.40;99.90;;;;;;4894814;29;20260;-75
2021/10/13 04:03:32;;;;;;;19.47;18.17;;;7.30;99.90;;;;;;4888469;29;20252;-75
2021/10/13 04:05:59;;;;;;;19.87;18.53;;;7.30;99.90;;;;;;4878731;29;20211;-76
2021/10/13 04:08:26;;;;;;;20.13;18.73;;;7.30;99.90;;;;;;4885703;29;20225;-75
2021/10/13 04:10:53;;;;;;;19.47;18.17;;;7.30;99.90;;;;;;4887435;29;20205;-75
2021/10/13 04:13:20;;;;;;;19.50;18.20;;;7.30;99.90;;;;;;4891004;29;20483;-75
2021/10/13 04:15:47;;;;;;;18.63;17.43;;;7.20;99.90;;;;;;4882947;29;20202;-75
2021/10/13 04:18:15;;;;;;;18.80;17.60;;;7.20;99.90;;;;;;4892393;29;20210;-75
2021/10/13 04:20:42;;;;;;;20.10;18.70;;;7.20;99.90;;;;;;4893824;29;20250;-75
2021/10/13 04:23:09;;;;;;;20.47;19.03;;;7.10;99.90;;;;;;4889127;29;20221;-75
2021/10/13 04:25:36;;;;;;;19.13;17.83;;;7.10;99.90;;;;;;4894343;29;20638;-78
2021/10/13 04:28:03;;;;;;;19.97;18.57;;;7.10;99.90;;;;;;4890619;29;20216;-75
2021/10/13 04:30:30;;;;;;;19.93;18.47;;;7.10;99.90;;;;;;4893983;29;20213;-75
2021/10/13 04:32:58;;;;;;;19.50;18.20;;;7.20;99.90;;;;;;4890420;29;20513;-75
2021/10/13 04:35:26;;;;;;;21.03;19.63;;;7.20;99.90;;;;;;4889636;29;20202;-76
2021/10/13 04:37:53;;;;;;;20.37;18.97;;;7.20;99.90;;;;;;4883098;29;20213;-75
2021/10/13 04:40:20;;;;;;;20.93;19.43;;;7.20;99.90;;;;;;4887364;29;20215;-76
2021/10/13 04:42:47;;;;;;;19.03;17.73;;;7.20;99.90;;;;;;4895590;29;20282;-76
2021/10/13 04:45:14;;;;;;;20.00;18.50;;;7.20;99.90;;;;;;4886052;29;20205;-76
2021/10/13 04:47:41;;;;;;;19.87;18.40;;;7.20;99.90;;;;;;4889504;29;20217;-76
2021/10/13 04:50:09;;;;;;;19.30;17.90;;;7.20;99.90;;;;;;4887262;29;20648;-76
2021/10/13 04:52:38;;;;;;;19.80;18.50;;;7.20;99.90;;;;;;4891525;29;20261;-76
2021/10/13 04:55:06;;;;;;;19.83;18.43;;;7.20;99.90;;;;;;4892553;29;20231;-76
2021/10/13 04:57:33;;;;;;;19.43;18.03;;;7.20;99.90;;;;;;4888817;29;20202;-77
2021/10/13 05:00:00;;;;;;;20.17;18.73;;;7.10;99.90;;;;;;4886719;29;20270;-76
2021/10/13 05:02:27;;;;;;;19.43;18.03;;;7.00;99.90;;;;;;4888262;29;20202;-76
2021/10/13 05:04:54;;;;;;;19.27;17.87;;;7.00;99.90;;;;;;4888416;29;20313;-76
2021/10/13 05:07:21;;;;;;;18.57;17.07;;;7.00;99.90;;;;;;4889134;29;20217;-75
2021/10/13 05:09:49;;;;;;;18.27;16.97;;;6.90;99.90;;;;;;4887676;29;20214;-76
2021/10/13 05:12:16;;;;;;;17.80;16.50;;;6.80;99.90;;;;;;4880392;29;20210;-75
2021/10/13 05:14:43;;;;;;;18.90;17.50;;;6.80;99.90;;;;;;4888733;29;20785;-75
2021/10/13 05:17:11;;;;;;;18.80;17.30;;;6.80;99.90;;;;;;4887919;29;20202;-75
2021/10/13 05:19:38;;;;;;;18.23;17.03;;;6.70;99.90;;;;;;4888411;29;20193;-76
2021/10/13 05:22:04;;;;;;;16.90;15.53;;;6.70;99.90;;;;;;4897057;29;20202;-76
2021/10/13 05:24:31;;;;;;;18.70;17.30;;;6.60;99.90;;;;;;4896368;29;20300;-76
2021/10/13 05:26:59;;;;;;;19.93;18.43;;;6.50;99.90;;;;;;4886310;29;20678;-76
2021/10/13 05:29:26;;;;;;;9.70;8.60;;;6.40;99.90;;;;;;4888207;29;20704;-76
2021/10/13 05:31:53;;;;;;;9.93;8.20;;;6.30;99.90;;;;;;4896747;29;20209;-76
2021/10/13 05:34:20;;;;;;;10.70;8.47;;;6.30;99.90;;;;;;4895982;29;20256;-77
2021/10/13 05:36:47;;;;;;;10.40;8.83;;;6.30;99.90;;;;;;4897070;29;20197;-75
2021/10/13 05:39:13;;;;;;;9.43;8.10;;;6.30;99.90;;;;;;4896840;29;20212;-76
2021/10/13 05:41:41;;;;;;;9.53;8.63;;;6.20;99.90;;;;;;4896281;29;20565;-78
2021/10/13 05:44:09;;;;;;;9.40;8.47;;;6.20;99.90;;;;;;4897651;29;20316;-75
2021/10/13 05:46:36;;;;;;;11.80;10.60;;;6.20;99.90;;;;;;4889561;29;20749;-76
2021/10/13 05:49:03;;;;;;;13.07;9.90;;;6.20;99.90;;;;;;4888787;29;20224;-76
2021/10/13 05:51:29;;;;;;;10.87;8.73;;;6.30;99.90;;;;;;4883469;29;20658;-76
2021/10/13 05:53:56;;;;;;;10.90;9.50;;;6.30;99.90;;;;;;4896500;29;20284;-76
2021/10/13 05:56:23;;;;;;;13.73;10.60;;;6.40;99.90;;;;;;4890269;29;20209;-75
2021/10/13 05:58:52;;;;;;;10.87;9.77;;;6.50;99.90;;;;;;4885795;29;20201;-76
2021/10/13 06:01:21;;;;;;;10.73;8.93;;;6.60;99.90;;;;;;4884541;29;20208;-75
2021/10/13 06:03:48;;;;;;;9.13;7.93;;;6.70;99.90;;;;;;4890009;29;20260;-76
2021/10/13 06:06:16;;;;;;;10.53;9.37;;;6.70;99.90;;;;;;4890048;29;20257;-75
2021/10/13 06:08:43;;;;;;;10.03;8.73;;;6.70;99.90;;;;;;4880926;29;20221;-76
2021/10/13 06:11:10;;;;;;;9.53;8.53;;;6.70;99.90;;;;;;4890275;29;20225;-74
2021/10/13 06:13:37;;;;;;;10.03;8.57;;;6.80;99.90;;;;;;4883039;29;20229;-76
2021/10/13 06:16:04;;;;;;;10.33;8.70;;;6.90;99.90;;;;;;4890018;29;20209;-75
2021/10/13 06:18:32;;;;;;;10.70;9.50;;;7.00;99.90;;;;;;4882163;29;20203;-76
2021/10/13 06:20:58;;;;;;;11.77;10.00;;;7.00;99.90;;;;;;4886221;29;20221;-76
2021/10/13 06:23:25;;;;;;;10.23;9.13;;;7.20;99.90;;;;;;4889785;29;20221;-75
2021/10/13 06:25:52;;;;;;;11.43;9.07;;;7.30;99.90;;;;;;4884358;29;20210;-76
2021/10/13 06:28:19;;;;;;;10.47;9.27;;;7.30;99.90;;;;;;4889587;29;20232;-76
2021/10/13 06:30:46;;;;;;;11.47;9.20;;;7.40;99.90;;;;;;4882952;29;20257;-75
2021/10/13 06:33:13;;;;;;;9.77;8.77;;;7.50;99.90;;;;;;4889558;29;20222;-75
2021/10/13 06:35:41;;;;;;;9.60;8.60;;;7.70;99.90;;;;;;4882062;29;20235;-75
2021/10/13 06:38:08;;;;;;;10.93;9.40;;;7.80;99.90;;;;;;4888530;29;20202;-77
2021/10/13 06:40:35;;;;;;;13.53;12.40;;;7.90;99.90;;;;;;4895742;29;20206;-76
2021/10/13 06:43:02;;;;;;;12.57;11.40;;;8.00;99.90;;;;;;4891362;29;20281;-75
2021/10/13 06:45:29;;;;;;;15.83;14.50;;;8.10;99.90;;;;;;4886122;29;20639;-75
2021/10/13 06:47:56;;;;;;;14.50;13.10;;;8.20;99.90;;;;;;4895132;29;20673;-76
2021/10/13 06:50:23;;;;;;;15.80;14.50;;;8.30;99.90;;;;;;4893089;29;20294;-74
2021/10/13 06:52:51;;;;;;;17.03;15.63;;;8.30;99.90;;;;;;4896633;29;20211;-75
2021/10/13 06:55:17;;;;;;;17.80;16.30;;;8.30;99.90;;;;;;4891531;29;20570;-76
2021/10/13 06:57:44;;;;;;;16.93;15.50;;;8.40;99.90;;;;;;4886146;29;20235;-75
2021/10/13 07:00:12;;;;;;;16.20;14.70;;;8.50;99.90;;;;;;4885928;29;20201;-76
2021/10/13 07:02:39;;;;;;;15.13;13.73;;;8.60;99.90;;;;;;4894644;29;20268;-76
2021/10/13 07:05:07;;;;;;;20.40;18.73;;;8.70;99.90;;;;;;4890830;29;20925;-74
2021/10/13 07:07:33;;;;;;;20.40;18.70;;;8.80;99.90;;;;;;4896401;29;20203;-76
2021/10/13 07:10:01;;;;;;;20.43;18.80;;;8.90;99.90;;;;;;4896158;29;20295;-75
2021/10/13 07:12:28;;;;;;;13.43;11.93;;;9.00;99.90;;;;;;4896340;29;20197;-76
2021/10/13 07:14:56;;;;;;;12.03;11.00;;;9.10;99.90;;;;;;4896283;29;20367;-76
2021/10/13 07:17:23;;;;;;;12.77;11.67;;;9.20;99.90;;;;;;4891618;29;20208;-76
2021/10/13 07:19:50;;;;;;;14.40;13.10;;;9.30;99.90;;;;;;4889694;29;20260;-78
2021/10/13 07:22:16;;;;;;;19.00;17.50;;;9.40;99.90;;;;;;4889937;29;20262;-79
2021/10/13 07:24:43;;;;;;;19.27;17.80;;;9.50;99.90;;;;;;4884734;29;20357;-76
2021/10/13 07:27:12;;;;;;;19.40;17.77;;;9.50;99.90;;;;;;4888347;29;20376;-76
2021/10/13 07:29:43;;;;;;;18.87;17.40;;;9.50;99.90;;;;;;4888555;29;20221;-76
2021/10/13 07:32:10;;;;;;;20.03;18.63;;;9.40;99.90;;;;;;4877751;29;20209;-76
2021/10/13 07:34:36;;;;;;;12.50;11.20;;;9.50;99.90;;;;;;4887058;29;20273;-75
2021/10/13 07:37:04;;;;;;;10.77;9.40;;;9.50;99.90;;;;;;4883792;29;20260;-76
2021/10/13 07:39:31;;;;;;;14.83;13.53;;;9.50;99.90;;;;;;4882894;29;20258;-76
2021/10/13 07:41:59;;;;;;;18.20;16.60;;;9.60;99.90;;;;;;4888360;29;20260;-76
2021/10/13 07:44:27;;;;;;;16.20;14.80;;;9.60;99.90;;;;;;4887209;29;20221;-76
2021/10/13 07:46:54;;;;;;;18.83;17.33;;;9.60;99.90;;;;;;4880295;29;20263;-77
2021/10/13 07:49:21;;;;;;;18.80;17.03;;;9.60;99.90;;;;;;4888355;29;20285;-76
2021/10/13 07:51:48;;;;;;;18.50;16.87;;;9.50;99.90;;;;;;4882986;29;20675;-76
2021/10/13 07:54:15;;;;;;;17.63;16.23;;;9.50;99.90;;;;;;4885512;29;20271;-76
2021/10/13 07:56:42;;;;;;;16.23;14.93;;;9.70;99.90;;;;;;4885417;29;20678;-76
2021/10/13 07:59:09;;;;;;;17.40;16.00;;;10.60;99.90;;;;;;4885248;29;20205;-76
2021/10/13 08:01:37;;;;;;;17.63;16.17;;;11.10;99.90;;;;;;4885342;29;20253;-76
2021/10/13 08:04:04;;;;;;;19.73;18.13;;;11.50;99.90;;;;;;4884317;29;20650;-76
2021/10/13 08:06:30;;;;;;;17.30;16.10;;;11.80;99.90;;;;;;4893003;29;20252;-76
2021/10/13 08:08:57;;;;;;;17.60;16.30;;;11.80;99.90;;;;;;4884706;29;20201;-76
2021/10/13 08:11:24;;;;;;;17.77;16.23;;;11.50;99.90;;;;;;4888229;29;20205;-76
2021/10/13 08:13:51;;;;;;;12.63;11.50;;;11.10;99.90;;;;;;4887319;29;20229;-76
2021/10/13 08:16:18;;;;;;;11.53;10.43;;;10.80;99.90;;;;;;4888986;29;20229;-76
2021/10/13 08:18:46;;;;;;;14.07;12.87;;;10.60;99.90;;;;;;4897767;29;20992;-77
2021/10/13 08:21:12;;;;;;;12.00;10.90;;;10.40;99.90;;;;;;4894079;29;20741;-76
2021/10/13 08:23:39;;;;;;;11.80;10.73;;;10.30;99.90;;;;;;4894985;29;20273;-76
2021/10/13 08:26:06;;;;;;;11.53;10.63;;;10.20;99.90;;;;;;4898660;29;20197;-76
2021/10/13 08:28:33;;;;;;;10.87;9.87;;;10.30;99.90;;;;;;4899095;29;20613;-76
2021/10/13 08:31:00;;;;;;;10.30;9.40;;;10.70;99.90;;;;;;4899413;29;20278;-76
2021/10/13 08:33:27;;;;;;;11.63;10.17;;;11.20;99.90;;;;;;4891574;29;20657;-76
2021/10/13 08:35:55;;;;;;;17.10;15.80;;;11.70;99.90;;;;;;4881633;29;20253;-76
2021/10/13 08:38:22;;;;;;;17.50;16.17;;;12.30;99.90;;;;;;4881171;29;20199;-76
2021/10/13 08:40:48;;;;;;;14.97;13.77;;;12.60;99.90;;;;;;4894818;29;20262;-77
2021/10/13 08:43:15;;;;;;;12.80;11.90;;;12.90;99.90;;;;;;4899197;29;20646;-76
2021/10/13 08:45:42;;;;;;;14.03;12.97;;;13.40;99.90;;;;;;4898879;29;20669;-76
2021/10/13 08:48:09;;;;;;;15.93;14.83;;;13.80;99.90;;;;;;4898783;29;20260;-76
2021/10/13 08:50:38;;;;;;;12.47;11.57;;;14.30;99.90;;;;;;4899463;29;20288;-77
2021/10/13 08:53:08;;;;;;;13.60;12.67;;;14.70;99.90;;;;;;4894913;29;20213;-77
2021/10/13 08:55:35;;;;;;;12.33;11.43;;;15.20;99.90;;;;;;4890337;29;20258;-76
2021/10/13 08:58:10;;;;;;;14.70;13.47;;;15.20;99.90;;;;;;4885607;29;20206;-77
2021/10/13 09:00:37;;;;;;;13.07;12.20;;;14.80;99.90;;;;;;4893147;29;20194;-78
2021/10/13 09:03:04;;;;;;;13.57;12.57;;;14.50;99.90;;;;;;4888236;29;20212;-77
2021/10/13 09:05:31;;;;;;;14.50;13.30;;;14.60;99.90;;;;;;4889866;29;20247;-77
2021/10/13 09:07:57;;;;;;;8.83;8.20;;;14.40;99.90;;;;;;4888629;29;20207;-76
2021/10/13 09:10:31;;;;;;;7.07;6.47;;;14.00;99.90;;;;;;4894553;29;20217;-76
2021/10/13 09:12:58;;;;;;;6.97;6.33;;;13.50;99.90;;;;;;4895676;29;20258;-77
2021/10/13 09:15:27;;;;;;;7.20;6.50;;;13.30;99.90;;;;;;4897288;29;20637;-77
2021/10/13 09:17:57;;;;;;;6.77;6.23;;;13.70;99.90;;;;;;4889510;29;20232;-76
2021/10/13 09:20:27;;;;;;;7.27;6.50;;;13.70;99.90;;;;;;4896657;29;20252;-78
2021/10/13 09:22:59;;;;;;;11.30;10.40;;;13.60;99.90;;;;;;4887155;29;20206;-76
2021/10/13 09:25:27;;;;;;;7.43;6.57;;;13.60;99.90;;;;;;4895150;29;20328;-76
2021/10/13 09:27:56;;;;;;;7.00;6.20;;;13.80;99.90;;;;;;4887429;29;20299;-75
2021/10/13 09:30:28;;;;;;;7.13;6.60;;;13.70;99.90;;;;;;4887489;29;20221;-77
2021/10/13 09:32:55;;;;;;;11.87;11.10;;;13.50;99.90;;;;;;4887309;29;20201;-77
2021/10/13 09:35:28;;;;;;;13.33;12.53;;;13.40;99.90;;;;;;4888091;29;20210;-76
2021/10/13 09:37:55;;;;;;;6.30;5.70;;;13.20;99.90;;;;;;4885540;29;20219;-77
2021/10/13 09:40:29;;;;;;;12.70;11.90;;;13.00;99.90;;;;;;4892611;29;20201;-76
2021/10/13 09:42:59;;;;;;;9.27;8.50;;;12.80;99.90;;;;;;4886060;29;20217;-77
2021/10/13 09:45:27;;;;;;;8.77;8.07;;;12.60;99.90;;;;;;4896114;29;20663;-75
2021/10/13 09:48:02;;;;;;;12.97;12.17;;;12.40;99.90;;;;;;4895482;29;20711;-75
2021/10/13 09:50:40;;;;;;;9.10;8.40;;;12.10;99.90;;;;;;4897981;29;20215;-76
2021/10/13 09:53:19;;;;;;;13.17;12.00;;;11.90;99.90;;;;;;4892519;29;20236;-76
2021/10/13 09:55:46;;;;;;;7.17;6.57;;;11.80;99.90;;;;;;4896377;29;20204;-76
2021/10/13 09:58:25;;;;;;;12.97;11.80;;;12.00;99.90;;;;;;4897737;29;20204;-76
2021/10/13 10:01:08;;;;;;;12.33;11.53;;;12.20;99.90;;;;;;4896809;29;20247;-77
2021/10/13 10:03:35;;;;;;;9.93;7.77;;;12.40;99.90;;;;;;4891019;29;20223;-76
2021/10/13 10:06:03;;;;;;;8.43;7.70;;;12.50;99.90;;;;;;4896405;29;20204;-77
2021/10/13 10:08:30;;;;;;;7.97;7.13;;;12.50;99.90;;;;;;4889601;29;20208;-77
2021/10/13 10:11:05;;;;;;;6.77;6.20;;;12.40;99.90;;;;;;4888207;29;20220;-77
2021/10/13 10:13:37;;;;;;;6.20;5.70;;;12.70;99.90;;;;;;4887637;29;20228;-77
2021/10/13 10:16:05;;;;;;;7.20;6.70;;;13.00;99.90;;;;;;4884904;29;20201;-77
2021/10/13 10:18:33;;;;;;;10.83;5.73;;;13.40;99.90;;;;;;4888829;29;20638;-77
2021/10/13 10:21:20;;;;;;;5.97;5.27;;;13.50;99.90;;;;;;4884540;29;20279;-77
2021/10/13 10:23:48;;;;;;;5.37;4.90;;;13.50;99.90;;;;;;4892385;29;20272;-77
2021/10/13 10:26:32;;;;;;;5.17;4.87;;;13.60;99.90;;;;;;4885937;29;20209;-77
2021/10/13 10:29:03;;;;;;;5.07;4.77;;;13.80;99.90;;;;;;4897004;29;20217;-76
2021/10/13 10:31:41;;;;;;;6.10;5.50;;;14.00;99.90;;;;;;4888463;29;20232;-77
2021/10/13 10:34:11;;;;;;;6.43;5.10;;;14.10;99.90;;;;;;4885805;29;20641;-77
2021/10/13 10:37:10;;;;;;;6.87;6.37;;;14.10;99.90;;;;;;4887771;29;20256;-76
2021/10/13 10:39:57;;;;;;;6.33;5.73;;;13.70;99.90;;;;;;4883167;29;20213;-77
2021/10/13 10:42:50;;;;;;;12.30;11.50;;;13.30;99.90;;;;;;4886586;29;20212;-77
2021/10/13 10:45:20;;;;;;;11.40;10.70;;;12.60;99.90;;;;;;4895426;29;20209;-76
2021/10/13 10:48:11;;;;;;;10.90;10.20;;;11.90;99.90;;;;;;4886739;29;20627;-77
2021/10/13 10:50:41;;;;;;;11.30;10.60;;;11.30;99.90;;;;;;4895304;29;20216;-76
2021/10/13 10:53:18;;;;;;;11.27;10.67;;;11.10;99.90;;;;;;4888391;29;20286;-76
2021/10/13 10:55:47;;;;;;;10.87;10.23;;;10.90;99.90;;;;;;4886656;29;20246;-77
2021/10/13 10:58:16;;;;;;;11.33;10.67;;;10.80;99.90;;;;;;4877865;29;20736;-77
2021/10/13 11:00:44;;;;;;;11.80;11.00;;;10.70;99.90;;;;;;4889332;29;20224;-76
2021/10/13 11:03:20;;;;;;;11.80;11.10;;;10.70;99.90;;;;;;4882108;29;20719;-77
2021/10/13 11:05:47;;;;;;;11.50;10.80;;;10.60;99.90;;;;;;4889015;29;20206;-77
2021/10/13 11:08:14;;;;;;;11.03;10.33;;;10.50;99.90;;;;;;4886834;29;20285;-77
2021/10/13 11:10:42;;;;;;;10.97;10.27;;;10.60;99.90;;;;;;4888731;29;20233;-77
2021/10/13 11:13:09;;;;;;;10.87;10.17;;;10.70;99.90;;;;;;4887937;29;20221;-77
2021/10/13 11:15:38;;;;;;;11.20;10.60;;;10.50;99.90;;;;;;4887254;29;20201;-77
2021/10/13 11:18:13;;;;;;;4.80;4.50;;;10.60;99.90;;;;;;4885756;29;20223;-77
2021/10/13 11:20:40;;;;;;;5.73;5.23;;;10.70;99.90;;;;;;4887389;29;20216;-77
2021/10/13 11:23:08;;;;;;;4.77;4.47;;;10.70;99.90;;;;;;4885780;29;20722;-77
2021/10/13 11:25:36;;;;;;;5.80;5.40;;;10.70;99.90;;;;;;4886996;29;20257;-76
2021/10/13 11:28:05;;;;;;;5.90;5.40;;;10.70;99.90;;;;;;4885755;29;20201;-77
2021/10/13 11:30:38;;;;;;;6.33;5.73;;;10.80;99.90;;;;;;4886442;29;20272;-76
2021/10/13 11:33:06;;;;;;;6.53;5.93;;;10.70;99.90;;;;;;4900745;29;20210;-76
2021/10/13 11:35:35;;;;;;;7.10;6.50;;;10.70;99.90;;;;;;4885595;29;20243;-77
2021/10/13 11:38:02;;;;;;;6.23;5.83;;;10.70;99.90;;;;;;4876581;29;20567;-76
2021/10/13 11:40:30;;;;;;;6.93;6.30;;;10.60;99.90;;;;;;4885747;29;20613;-76
2021/10/13 11:42:57;;;;;;;6.47;5.87;;;10.50;99.90;;;;;;4877536;29;20201;-77
2021/10/13 11:45:24;;;;;;;6.83;6.30;;;10.40;99.90;;;;;;4888565;29;20196;-76
2021/10/13 11:47:51;;;;;;;6.77;6.27;;;10.40;99.90;;;;;;4885384;29;20525;-76
2021/10/13 11:50:20;;;;;;;6.50;5.90;;;10.30;99.90;;;;;;4888716;29;20225;-77
2021/10/13 11:52:54;;;;;;;9.13;8.43;;;10.30;99.90;;;;;;4886152;29;20244;-76
2021/10/13 11:55:25;;;;;;;6.00;5.60;;;10.30;99.90;;;;;;4887030;29;20208;-76
2021/10/13 11:57:54;;;;;;;11.53;10.83;;;10.30;99.90;;;;;;4885373;29;20284;-76
2021/10/13 12:00:23;;;;;;;8.23;7.60;;;10.30;99.90;;;;;;4892176;29;20208;-77
2021/10/13 12:03:02;;;;;;;5.60;5.30;;;10.40;99.90;;;;;;4886184;29;20242;-76
2021/10/13 12:05:31;;;;;;;6.17;5.67;;;10.60;99.90;;;;;;4888737;29;20245;-76
2021/10/13 12:08:04;;;;;;;5.60;5.10;;;10.80;99.90;;;;;;4888441;29;20197;-78
2021/10/13 12:10:35;;;;;;;4.80;4.50;;;11.10;99.90;;;;;;4879560;29;20288;-77
2021/10/13 12:13:03;;;;;;;4.93;4.63;;;11.40;99.90;;;;;;4882236;29;20206;-77
2021/10/13 12:15:30;;;;;;;5.70;5.30;;;11.80;99.90;;;;;;4892833;29;20628;-77
2021/10/13 12:18:13;;;;;;;5.20;4.80;;;12.10;99.90;;;;;;4885153;29;20205;-77
2021/10/13 12:20:40;;;;;;;3.17;2.93;;;12.20;99.90;;;;;;4890111;29;20260;-77
2021/10/13 12:23:13;;;;;;;5.50;5.20;;;12.50;99.90;;;;;;4887910;29;20203;-77
2021/10/13 12:25:40;;;;;;;3.00;2.80;;;12.60;99.90;;;;;;4885540;29;20686;-77
2021/10/13 12:28:22;;;;;;;5.20;4.80;;;12.50;99.90;;;;;;4888077;29;20260;-76
2021/10/13 12:30:58;;;;;;;5.13;4.83;;;12.40;99.90;;;;;;4879495;29;20285;-77
2021/10/13 12:33:25;;;;;;;5.03;4.73;;;12.20;99.90;;;;;;4895877;29;20271;-76
2021/10/13 12:35:52;;;;;;;9.13;8.63;;;12.20;99.90;;;;;;4884124;29;20217;-77
2021/10/13 12:38:21;;;;;;;11.27;10.47;;;12.20;99.90;;;;;;4885616;29;20204;-77
2021/10/13 12:41:03;;;;;;;11.27;10.47;;;12.20;99.90;;;;;;4890171;29;20193;-77
2021/10/13 12:43:30;;;;;;;8.50;7.90;;;12.30;99.90;;;;;;4890249;29;20718;-76
2021/10/13 12:46:11;;;;;;;6.10;5.70;;;12.40;99.90;;;;;;4879431;29;20212;-77
2021/10/13 12:48:41;;;;;;;9.93;9.23;;;12.50;99.90;;;;;;4888730;29;20209;-77
2021/10/13 12:51:09;;;;;;;8.87;8.27;;;12.50;99.90;;;;;;4887773;29;20216;-76